Time;durP1;ratioP1;P1;durP2;ratioP2;P2;SDS_P1;SDS_P2;PMS_P1;PMS_P2;Temp;Humidity;BMP_temperature;BMP_pressure;BME280_temperature;BME280_humidity;BME280_pressure;Samples;Min_cycle;Max_cycle;Signal;HPM_P1;HPM_P2
2021/11/04 00:02:03;;;;;;;59.60;37.20;;;;;;;;;;5016259;28;20374;-87
2021/11/04 00:04:28;;;;;;;79.35;39.33;;;;;;;;;;5014877;28;20730;-87
2021/11/04 00:06:54;;;;;;;75.93;39.47;;;;;;;;;;5032747;28;20025;-87
2021/11/04 00:09:20;;;;;;;53.85;35.97;;;;;;;;;;5032535;28;20271;-87
2021/11/04 00:11:45;;;;;;;65.07;39.28;;;;;;;;;;5014844;28;20033;-87
2021/11/04 00:14:10;;;;;;;68.65;38.17;;;;;;;;;;5014926;28;20021;-87
2021/11/04 00:16:35;;;;;;;73.40;40.90;;;;;;;;;;5032858;28;20021;-88
2021/11/04 00:19:01;;;;;;;67.00;40.30;;;;;;;;;;5032690;28;20315;-88
2021/11/04 00:21:26;;;;;;;67.38;41.00;;;;;;;;;;5015849;28;20032;-88
2021/11/04 00:23:51;;;;;;;68.22;39.08;;;;;;;;;;5014535;28;20033;-87
2021/11/04 00:26:17;;;;;;;72.40;40.70;;;;;;;;;;5031000;28;20036;-88
2021/11/04 00:28:42;;;;;;;70.45;39.80;;;;;;;;;;5032767;28;20040;-88
2021/11/04 00:31:09;;;;;;;67.13;38.80;;;;;;;;;;5014441;28;20095;-88
2021/11/04 00:33:37;;;;;;;79.05;42.10;;;;;;;;;;5013355;28;20061;-88
2021/11/04 00:36:02;;;;;;;78.35;43.58;;;;;;;;;;5032297;28;20033;-87
2021/11/04 00:38:27;;;;;;;75.07;43.00;;;;;;;;;;5036706;28;20851;-88
2021/11/04 00:40:55;;;;;;;67.90;39.47;;;;;;;;;;5032183;28;20021;-88
2021/11/04 00:43:20;;;;;;;62.83;37.17;;;;;;;;;;5032195;28;20025;-87
2021/11/04 00:45:45;;;;;;;70.10;37.43;;;;;;;;;;5032161;28;20036;-87
2021/11/04 00:48:10;;;;;;;63.10;37.15;;;;;;;;;;5032012;28;20260;-87
2021/11/04 00:50:35;;;;;;;54.00;35.47;;;;;;;;;;5013999;28;20236;-87
2021/11/04 00:53:01;;;;;;;50.28;32.90;;;;;;;;;;5014160;28;20803;-87
2021/11/04 00:55:26;;;;;;;60.63;35.83;;;;;;;;;;5033722;28;20025;-87
2021/11/04 00:57:51;;;;;;;66.28;35.88;;;;;;;;;;5031850;28;20850;-87
2021/11/04 01:00:17;;;;;;;65.13;37.78;;;;;;;;;;5013864;28;20397;-88
2021/11/04 01:02:42;;;;;;;58.90;35.60;;;;;;;;;;5031664;28;20064;-87
2021/11/04 01:05:08;;;;;;;63.90;37.17;;;;;;;;;;5013541;28;20107;-87
2021/11/04 01:07:33;;;;;;;65.88;36.38;;;;;;;;;;5031652;28;20148;-87
2021/11/04 01:09:58;;;;;;;57.03;35.65;;;;;;;;;;5013806;28;20477;-87
2021/11/04 01:12:24;;;;;;;62.30;35.90;;;;;;;;;;5014479;28;20049;-87
2021/11/04 01:14:49;;;;;;;66.55;36.13;;;;;;;;;;5013570;28;20026;-87
2021/11/04 01:17:14;;;;;;;79.70;39.35;;;;;;;;;;5013534;28;20461;-87
2021/11/04 01:19:40;;;;;;;65.00;36.80;;;;;;;;;;5013585;28;20022;-87
2021/11/04 01:22:05;;;;;;;71.13;36.65;;;;;;;;;;5013736;28;20024;-87
2021/11/04 01:24:30;;;;;;;57.45;35.20;;;;;;;;;;5029616;28;20025;-87
2021/11/04 01:26:56;;;;;;;64.65;37.15;;;;;;;;;;5031220;28;20044;-87
2021/11/04 01:29:21;;;;;;;70.10;36.15;;;;;;;;;;5031968;28;20028;-87
2021/11/04 01:31:47;;;;;;;73.57;38.50;;;;;;;;;;5032379;28;20061;-87
2021/11/04 01:34:12;;;;;;;60.88;36.80;;;;;;;;;;5031373;28;20036;-87
2021/11/04 01:36:37;;;;;;;56.50;34.90;;;;;;;;;;5013308;28;20026;-87
2021/11/04 01:39:03;;;;;;;61.72;36.47;;;;;;;;;;5013185;28;20478;-87
2021/11/04 01:41:28;;;;;;;72.60;38.88;;;;;;;;;;5013015;28;20022;-87
2021/11/04 01:43:53;;;;;;;69.43;38.05;;;;;;;;;;5030900;28;20032;-87
2021/11/04 01:46:19;;;;;;;76.50;38.78;;;;;;;;;;5013132;28;20822;-87
2021/11/04 01:48:45;;;;;;;67.90;38.60;;;;;;;;;;5014054;28;20021;-87
2021/11/04 01:51:10;;;;;;;62.67;37.25;;;;;;;;;;5030832;28;20021;-87
2021/11/04 01:53:35;;;;;;;54.10;35.35;;;;;;;;;;5030625;28;20385;-87
2021/11/04 01:56:00;;;;;;;73.65;39.78;;;;;;;;;;5030909;28;20033;-87
2021/11/04 01:58:26;;;;;;;73.83;40.87;;;;;;;;;;5013010;28;20021;-87
2021/11/04 02:00:52;;;;;;;71.15;39.22;;;;;;;;;;5012789;28;20325;-87
2021/11/04 02:03:17;;;;;;;71.93;39.00;;;;;;;;;;5030374;28;20054;-87
2021/11/04 02:06:03;;;;;;;80.97;40.03;;;;;;;;;;5030744;28;20036;-87
2021/11/04 02:08:50;;;;;;;77.00;39.67;;;;;;;;;;4993516;28;20037;-87
2021/11/04 02:11:18;;;;;;;79.32;41.67;;;;;;;;;;5030490;28;20024;-87
2021/11/04 02:13:46;;;;;;;74.97;41.25;;;;;;;;;;5012763;28;20038;-87
2021/11/04 02:16:13;;;;;;;80.32;40.65;;;;;;;;;;5030714;28;20112;-87
2021/11/04 02:18:39;;;;;;;73.82;39.08;;;;;;;;;;5030777;28;20493;-87
2021/11/04 02:21:20;;;;;;;79.53;40.08;;;;;;;;;;5012777;28;20059;-87
2021/11/04 02:23:52;;;;;;;89.72;44.47;;;;;;;;;;5029879;28;20124;-87
2021/11/04 02:26:17;;;;;;;;;;;;;;;;;;5031662;28;20073;-87
2021/11/04 02:28:43;;;;;;;78.15;42.28;;;;;;;;;;5029936;28;19909;-87
2021/11/04 02:31:09;;;;;;;71.65;38.30;;;;;;;;;;5013510;28;20188;-87
2021/11/04 02:33:36;;;;;;;84.65;41.53;;;;;;;;;;5012443;28;20037;-87
2021/11/04 02:36:01;;;;;;;87.00;42.90;;;;;;;;;;5012884;28;20121;-87
2021/11/04 02:38:28;;;;;;;74.82;40.65;;;;;;;;;;5012769;28;20448;-87
2021/11/04 02:40:53;;;;;;;74.05;40.78;;;;;;;;;;5013086;28;20048;-87
2021/11/04 02:43:19;;;;;;;70.15;40.78;;;;;;;;;;5012860;28;20045;-87
2021/11/04 02:45:44;;;;;;;81.43;40.30;;;;;;;;;;5013009;28;20022;-87
2021/11/04 02:48:10;;;;;;;70.10;39.33;;;;;;;;;;5013261;28;20052;-87
2021/11/04 02:50:35;;;;;;;64.82;39.20;;;;;;;;;;5014296;28;20482;-87
2021/11/04 02:53:00;;;;;;;67.03;41.42;;;;;;;;;;5015390;28;20057;-87
2021/11/04 02:55:36;;;;;;;68.35;39.53;;;;;;;;;;5015131;28;20592;-88
2021/11/04 02:58:05;;;;;;;79.97;42.58;;;;;;;;;;5032732;28;20481;-87
2021/11/04 03:00:30;;;;;;;62.53;39.40;;;;;;;;;;5037637;28;20017;-87
2021/11/04 03:02:56;;;;;;;68.80;39.17;;;;;;;;;;5017997;28;20017;-87
2021/11/04 03:05:21;;;;;;;65.77;38.17;;;;;;;;;;5017833;28;20037;-87
2021/11/04 03:07:46;;;;;;;79.77;40.97;;;;;;;;;;5018873;28;20306;-87
2021/11/04 03:10:11;;;;;;;63.13;36.85;;;;;;;;;;5035702;28;20771;-88
2021/11/04 03:12:37;;;;;;;56.55;34.78;;;;;;;;;;5018299;28;20040;-87
2021/11/04 03:15:03;;;;;;;73.25;39.30;;;;;;;;;;5040354;28;20025;-86
2021/11/04 03:17:28;;;;;;;75.00;40.75;;;;;;;;;;5020466;28;20018;-87
2021/11/04 03:19:53;;;;;;;72.50;39.63;;;;;;;;;;5036982;28;20075;-88
2021/11/04 03:22:19;;;;;;;88.03;42.20;;;;;;;;;;5036638;28;20275;-87
2021/11/04 03:24:44;;;;;;;78.03;41.15;;;;;;;;;;5036666;28;20017;-87
2021/11/04 03:27:10;;;;;;;91.95;42.97;;;;;;;;;;5018796;28;20056;-87
2021/11/04 03:29:36;;;;;;;96.22;43.53;;;;;;;;;;5036640;28;20096;-87
2021/11/04 03:32:03;;;;;;;91.47;43.40;;;;;;;;;;5018740;28;20021;-87
2021/11/04 03:34:29;;;;;;;87.57;44.00;;;;;;;;;;5018567;28;20159;-87
2021/11/04 03:36:55;;;;;;;80.50;42.40;;;;;;;;;;5035124;28;20060;-87
2021/11/04 03:39:21;;;;;;;100.13;46.80;;;;;;;;;;5037530;28;20370;-87
2021/11/04 03:41:47;;;;;;;96.53;48.03;;;;;;;;;;5018571;28;20024;-87
2021/11/04 03:44:13;;;;;;;97.40;46.65;;;;;;;;;;5018487;28;20025;-87
2021/11/04 03:46:41;;;;;;;108.70;46.85;;;;;;;;;;5036079;28;20059;-87
2021/11/04 03:49:06;;;;;;;72.40;40.97;;;;;;;;;;5018662;28;20021;-87
2021/11/04 03:51:32;;;;;;;102.85;48.38;;;;;;;;;;5018361;28;20025;-87
2021/11/04 03:53:57;;;;;;;81.18;43.15;;;;;;;;;;5018465;28;20017;-87
2021/11/04 03:56:22;;;;;;;87.60;43.47;;;;;;;;;;5037208;28;20104;-88
2021/11/04 03:58:48;;;;;;;89.88;45.60;;;;;;;;;;5036000;28;20064;-87
2021/11/04 04:01:13;;;;;;;90.57;43.78;;;;;;;;;;5018353;28;20025;-87
2021/11/04 04:03:40;;;;;;;90.93;47.08;;;;;;;;;;5035610;28;20053;-87
2021/11/04 04:06:06;;;;;;;75.85;42.45;;;;;;;;;;5035930;28;20017;-87
2021/11/04 04:08:33;;;;;;;70.45;41.92;;;;;;;;;;5035609;28;20040;-87
2021/11/04 04:10:58;;;;;;;65.80;42.63;;;;;;;;;;5017511;28;20033;-88
2021/11/04 04:13:24;;;;;;;105.75;47.90;;;;;;;;;;5014923;28;20370;-88
2021/11/04 04:15:49;;;;;;;102.60;48.13;;;;;;;;;;5032771;28;20036;-87
2021/11/04 04:18:14;;;;;;;95.17;47.57;;;;;;;;;;5034385;28;20264;-87
2021/11/04 04:20:39;;;;;;;156.77;54.13;;;;;;;;;;5032627;28;20306;-87
2021/11/04 04:23:04;;;;;;;120.32;49.47;;;;;;;;;;5032390;28;20743;-87
2021/11/04 04:25:30;;;;;;;128.00;50.50;;;;;;;;;;5014729;28;20477;-87
2021/11/04 04:27:56;;;;;;;65.03;38.92;;;;;;;;;;5014366;28;20268;-87
2021/11/04 04:30:21;;;;;;;98.93;47.20;;;;;;;;;;5014183;28;20112;-87
2021/11/04 04:32:46;;;;;;;118.18;48.25;;;;;;;;;;5031023;28;20132;-88
2021/11/04 04:35:12;;;;;;;140.75;52.58;;;;;;;;;;5032395;28;20112;-87
2021/11/04 04:37:37;;;;;;;142.67;53.70;;;;;;;;;;5015929;28;20121;-88
2021/11/04 04:40:02;;;;;;;144.60;53.70;;;;;;;;;;5014337;28;20760;-87
2021/11/04 04:42:27;;;;;;;126.88;52.13;;;;;;;;;;5032181;28;20031;-87
2021/11/04 04:44:53;;;;;;;123.80;51.22;;;;;;;;;;5014256;28;20036;-88
2021/11/04 04:47:18;;;;;;;97.63;48.20;;;;;;;;;;5014386;28;20017;-87
2021/11/04 04:49:43;;;;;;;113.15;50.53;;;;;;;;;;5032093;28;20279;-87
2021/11/04 04:52:08;;;;;;;95.70;46.75;;;;;;;;;;5032627;28;20389;-87
2021/11/04 04:54:34;;;;;;;69.53;42.22;;;;;;;;;;5031797;28;20071;-87
2021/11/04 04:56:59;;;;;;;144.25;53.88;;;;;;;;;;5014207;28;20075;-87
2021/11/04 04:59:24;;;;;;;138.45;54.22;;;;;;;;;;5013797;28;20063;-88
2021/11/04 05:01:49;;;;;;;114.43;52.53;;;;;;;;;;5032098;28;20442;-87
2021/11/04 05:04:14;;;;;;;125.03;54.35;;;;;;;;;;5032665;28;20335;-87
2021/11/04 05:06:40;;;;;;;88.40;48.08;;;;;;;;;;5034615;28;20087;-88
2021/11/04 05:09:05;;;;;;;130.20;54.20;;;;;;;;;;5017297;28;20036;-88
2021/11/04 05:11:30;;;;;;;155.40;56.22;;;;;;;;;;5013673;28;20276;-87
2021/11/04 05:13:55;;;;;;;197.37;64.20;;;;;;;;;;5029890;28;20542;-88
2021/11/04 05:16:20;;;;;;;119.18;54.83;;;;;;;;;;5013691;28;20278;-88
2021/11/04 05:18:46;;;;;;;109.40;51.87;;;;;;;;;;5013880;28;20063;-88
2021/11/04 05:21:11;;;;;;;132.10;55.97;;;;;;;;;;5013218;28;21071;-88
2021/11/04 05:23:36;;;;;;;104.65;50.28;;;;;;;;;;5031482;28;20601;-87
2021/11/04 05:26:01;;;;;;;118.73;51.87;;;;;;;;;;5013594;28;20040;-88
2021/11/04 05:28:27;;;;;;;108.53;48.70;;;;;;;;;;5014055;28;20752;-88
2021/11/04 05:30:53;;;;;;;149.68;54.65;;;;;;;;;;5013197;28;20099;-87
2021/11/04 05:33:18;;;;;;;130.93;49.83;;;;;;;;;;5031133;28;20079;-88
2021/11/04 05:35:43;;;;;;;139.35;50.70;;;;;;;;;;5031412;28;20100;-88
2021/11/04 05:38:09;;;;;;;124.47;49.90;;;;;;;;;;5031301;28;20104;-87
2021/11/04 05:40:35;;;;;;;151.63;52.77;;;;;;;;;;5013315;28;20041;-87
2021/11/04 05:43:00;;;;;;;163.30;53.35;;;;;;;;;;5013158;28;20292;-87
2021/11/04 05:45:25;;;;;;;103.90;46.80;;;;;;;;;;5030922;28;20544;-87
2021/11/04 05:47:50;;;;;;;149.37;52.57;;;;;;;;;;5032548;28;20021;-87
2021/11/04 05:50:16;;;;;;;126.07;50.20;;;;;;;;;;5012983;28;20280;-87
2021/11/04 05:52:41;;;;;;;131.15;49.10;;;;;;;;;;5013140;28;20381;-87
2021/11/04 05:55:06;;;;;;;137.53;49.73;;;;;;;;;;5013011;28;20025;-87
2021/11/04 05:57:31;;;;;;;121.35;47.03;;;;;;;;;;5013257;28;20039;-87
2021/11/04 05:59:57;;;;;;;94.13;41.53;;;;;;;;;;5030636;28;20033;-86
2021/11/04 06:02:22;;;;;;;98.63;41.20;;;;;;;;;;5031167;28;20265;-87
2021/11/04 06:04:47;;;;;;;119.65;44.45;;;;;;;;;;5033053;28;20053;-87
2021/11/04 06:07:13;;;;;;;117.88;43.90;;;;;;;;;;5013629;28;20042;-86
2021/11/04 06:09:39;;;;;;;76.03;35.70;;;;;;;;;;5030897;28;20025;-86
2021/11/04 06:12:05;;;;;;;49.50;31.23;;;;;;;;;;5013093;28;20032;-87
2021/11/04 06:14:30;;;;;;;74.40;35.25;;;;;;;;;;5030630;28;20049;-87
2021/11/04 06:16:55;;;;;;;86.20;35.17;;;;;;;;;;5012662;28;20420;-87
2021/11/04 06:19:20;;;;;;;78.70;33.87;;;;;;;;;;5030666;28;20257;-87
2021/11/04 06:21:46;;;;;;;39.40;24.55;;;;;;;;;;5012796;28;20256;-87
2021/11/04 06:24:11;;;;;;;49.22;26.25;;;;;;;;;;5031952;28;20021;-87
2021/11/04 06:26:37;;;;;;;46.10;25.77;;;;;;;;;;5033053;28;20536;-87
2021/11/04 06:29:02;;;;;;;51.38;26.27;;;;;;;;;;5030469;28;20101;-86
2021/11/04 06:31:28;;;;;;;66.78;28.60;;;;;;;;;;5014136;28;20029;-87
2021/11/04 06:33:53;;;;;;;64.68;27.23;;;;;;;;;;5016687;28;20033;-87
2021/11/04 06:36:18;;;;;;;51.07;27.63;;;;;;;;;;5016508;28;20497;-87
2021/11/04 06:38:43;;;;;;;94.20;32.20;;;;;;;;;;5035272;28;20268;-87
2021/11/04 06:41:08;;;;;;;78.50;32.47;;;;;;;;;;5038556;28;20021;-87
2021/11/04 06:43:34;;;;;;;45.27;26.33;;;;;;;;;;5024207;28;20120;-88
2021/11/04 06:46:00;;;;;;;77.90;32.92;;;;;;;;;;5017650;28;20029;-88
2021/11/04 06:48:26;;;;;;;69.13;32.38;;;;;;;;;;5016644;28;20090;-88
2021/11/04 06:50:55;;;;;;;108.85;36.63;;;;;;;;;;5034481;28;20014;-88
2021/11/04 06:53:25;;;;;;;114.10;38.95;;;;;;;;;;5033070;28;20034;-88
2021/11/04 06:55:51;;;;;;;76.05;33.50;;;;;;;;;;5016172;28;20457;-88
2021/11/04 06:58:19;;;;;;;112.85;37.75;;;;;;;;;;5034097;28;20163;-87
2021/11/04 07:00:46;;;;;;;63.83;32.58;;;;;;;;;;5016219;28;20143;-87
2021/11/04 07:03:15;;;;;;;70.32;33.42;;;;;;;;;;5018859;28;20563;-87
2021/11/04 07:05:43;;;;;;;78.43;34.78;;;;;;;;;;5034060;28;20148;-87
2021/11/04 07:08:19;;;;;;;77.78;33.08;;;;;;;;;;5016701;28;20037;-87
2021/11/04 07:10:45;;;;;;;54.80;27.75;;;;;;;;;;5033876;28;20029;-87
2021/11/04 07:13:12;;;;;;;54.97;28.63;;;;;;;;;;5033685;28;20033;-87
2021/11/04 07:15:38;;;;;;;51.20;24.40;;;;;;;;;;5015983;28;20488;-87
2021/11/04 07:18:03;;;;;;;42.55;23.55;;;;;;;;;;5033877;28;20025;-87
2021/11/04 07:20:29;;;;;;;42.33;22.40;;;;;;;;;;5016802;28;20109;-86
2021/11/04 07:22:54;;;;;;;47.17;22.13;;;;;;;;;;5016222;28;20028;-87
2021/11/04 07:25:21;;;;;;;61.90;24.60;;;;;;;;;;5015733;28;20644;-86
2021/11/04 07:28:05;;;;;;;34.00;18.10;;;;;;;;;;5015788;28;20477;-86
2021/11/04 07:30:31;;;;;;;35.35;17.55;;;;;;;;;;5033291;28;20067;-86
2021/11/04 07:33:01;;;;;;;20.83;12.85;;;;;;;;;;5015536;28;20037;-87
2021/11/04 07:35:31;;;;;;;27.98;13.23;;;;;;;;;;5033261;28;20113;-87
2021/11/04 07:37:57;;;;;;;24.98;14.07;;;;;;;;;;5015658;28;20022;-88
2021/11/04 07:40:25;;;;;;;29.63;14.98;;;;;;;;;;5015308;28;20946;-87
2021/11/04 07:42:50;;;;;;;22.73;13.75;;;;;;;;;;5015084;28;20017;-87
2021/11/04 07:45:15;;;;;;;20.15;12.40;;;;;;;;;;5033649;28;20100;-87
2021/11/04 07:47:42;;;;;;;24.10;13.40;;;;;;;;;;5017552;28;20018;-86
2021/11/04 07:50:08;;;;;;;15.93;10.38;;;;;;;;;;5040160;28;20017;-87
2021/11/04 07:52:33;;;;;;;19.50;12.85;;;;;;;;;;5036830;28;20484;-86
2021/11/04 07:55:03;;;;;;;17.95;12.32;;;;;;;;;;5018508;28;20033;-87
2021/11/04 07:57:29;;;;;;;27.00;14.48;;;;;;;;;;5033483;28;20037;-87
2021/11/04 07:59:54;;;;;;;16.98;10.75;;;;;;;;;;5031841;28;20037;-87
2021/11/04 08:02:19;;;;;;;18.10;9.48;;;;;;;;;;5032880;28;20025;-87
2021/11/04 08:04:45;;;;;;;14.65;9.18;;;;;;;;;;5015348;28;20553;-87
2021/11/04 08:07:10;;;;;;;13.70;9.02;;;;;;;;;;5015511;28;20079;-87
2021/11/04 08:09:36;;;;;;;11.33;8.30;;;;;;;;;;5032995;28;20099;-87
2021/11/04 08:12:01;;;;;;;13.05;8.60;;;;;;;;;;5031515;28;20308;-87
2021/11/04 08:14:26;;;;;;;13.32;8.27;;;;;;;;;;5014804;28;20032;-87
2021/11/04 08:16:52;;;;;;;15.45;9.43;;;;;;;;;;5015254;28;20055;-87
2021/11/04 08:19:17;;;;;;;14.23;9.77;;;;;;;;;;5033519;28;20124;-87
2021/11/04 08:21:42;;;;;;;14.70;9.77;;;;;;;;;;5032718;28;20021;-87
2021/11/04 08:24:08;;;;;;;17.55;10.15;;;;;;;;;;5014860;28;20055;-87
2021/11/04 08:26:33;;;;;;;16.38;10.32;;;;;;;;;;5032664;28;20087;-87
2021/11/04 08:29:01;;;;;;;20.40;12.38;;;;;;;;;;5014598;28;20021;-87
2021/11/04 08:31:26;;;;;;;14.07;10.50;;;;;;;;;;5014561;28;20393;-87
2021/11/04 08:33:51;;;;;;;17.35;11.80;;;;;;;;;;5016916;28;20037;-87
2021/11/04 08:36:16;;;;;;;16.58;11.73;;;;;;;;;;5032457;28;20022;-87
2021/11/04 08:38:42;;;;;;;16.35;12.32;;;;;;;;;;5014484;28;20029;-87
2021/11/04 08:41:07;;;;;;;19.38;11.70;;;;;;;;;;5014359;28;20040;-87
2021/11/04 08:43:32;;;;;;;17.25;11.48;;;;;;;;;;5014238;28;20021;-87
2021/11/04 08:45:57;;;;;;;20.37;11.67;;;;;;;;;;5032280;28;20036;-87
2021/11/04 08:48:23;;;;;;;12.85;9.75;;;;;;;;;;5033210;28;20273;-87
2021/11/04 08:50:49;;;;;;;16.38;10.90;;;;;;;;;;5030726;28;20025;-87
2021/11/04 08:53:14;;;;;;;18.63;12.15;;;;;;;;;;5032020;28;20156;-87
2021/11/04 08:55:40;;;;;;;14.75;11.30;;;;;;;;;;5031001;28;20108;-87
2021/11/04 08:58:05;;;;;;;17.60;11.30;;;;;;;;;;5014205;28;20025;-87
2021/11/04 09:00:31;;;;;;;16.50;11.80;;;;;;;;;;5014131;28;20074;-87
2021/11/04 09:02:56;;;;;;;14.48;10.60;;;;;;;;;;5013912;28;20768;-87
2021/11/04 09:05:21;;;;;;;24.52;12.20;;;;;;;;;;5016092;28;20036;-87
2021/11/04 09:07:46;;;;;;;17.88;12.07;;;;;;;;;;5031903;28;20036;-87
2021/11/04 09:10:13;;;;;;;19.57;13.13;;;;;;;;;;5031728;28;20033;-87
2021/11/04 09:12:39;;;;;;;16.48;11.40;;;;;;;;;;5031753;28;20295;-87
2021/11/04 09:15:05;;;;;;;18.77;12.90;;;;;;;;;;5030552;28;20109;-87
2021/11/04 09:17:30;;;;;;;21.48;13.10;;;;;;;;;;5031493;28;20029;-87
2021/11/04 09:19:55;;;;;;;22.67;13.48;;;;;;;;;;5035744;28;20021;-87
2021/11/04 09:22:21;;;;;;;19.65;13.77;;;;;;;;;;5031542;28;20082;-87
2021/11/04 09:24:46;;;;;;;20.40;14.73;;;;;;;;;;5031522;28;20106;-87
2021/11/04 09:27:12;;;;;;;16.48;12.55;;;;;;;;;;5013582;28;20468;-87
2021/11/04 09:29:38;;;;;;;15.02;12.43;;;;;;;;;;5031319;28;20025;-87
2021/11/04 09:32:06;;;;;;;19.70;13.65;;;;;;;;;;5031327;28;20052;-87
2021/11/04 09:34:31;;;;;;;20.52;15.20;;;;;;;;;;5013348;28;20071;-87
2021/11/04 09:36:56;;;;;;;17.73;14.40;;;;;;;;;;5031357;28;20025;-87
2021/11/04 09:39:22;;;;;;;21.08;15.15;;;;;;;;;;5013517;28;20141;-87
2021/11/04 09:41:48;;;;;;;19.25;15.80;;;;;;;;;;5013435;28;20397;-87
2021/11/04 09:44:13;;;;;;;27.08;17.90;;;;;;;;;;5033214;28;20025;-87
2021/11/04 09:46:42;;;;;;;23.67;16.08;;;;;;;;;;5031321;28;20031;-87
2021/11/04 09:49:07;;;;;;;20.45;15.57;;;;;;;;;;5013380;28;20109;-87
2021/11/04 09:51:32;;;;;;;19.63;14.93;;;;;;;;;;5030745;28;20109;-87
2021/11/04 09:53:57;;;;;;;18.75;14.90;;;;;;;;;;5013134;28;20033;-87
2021/11/04 09:56:23;;;;;;;17.80;15.47;;;;;;;;;;5030956;28;20056;-87
2021/11/04 09:58:48;;;;;;;22.40;16.77;;;;;;;;;;5031888;28;20029;-87
2021/11/04 10:01:15;;;;;;;27.35;16.48;;;;;;;;;;5013143;28;20035;-87
2021/11/04 10:03:41;;;;;;;23.50;17.10;;;;;;;;;;5029353;28;20084;-87
2021/11/04 10:06:06;;;;;;;26.83;18.00;;;;;;;;;;5030288;28;20068;-87
2021/11/04 10:08:32;;;;;;;27.00;19.80;;;;;;;;;;5013333;28;20033;-87
2021/11/04 10:11:04;;;;;;;27.50;19.25;;;;;;;;;;5013023;28;20260;-88
2021/11/04 10:13:29;;;;;;;;;;;;;;;;;;5030283;28;20033;-88
2021/11/04 10:15:54;;;;;;;26.63;19.30;;;;;;;;;;5030816;28;20384;-88
2021/11/04 10:18:21;;;;;;;25.27;19.38;;;;;;;;;;5030967;28;20049;-89
2021/11/04 10:21:05;;;;;;;23.88;17.98;;;;;;;;;;5012855;28;20024;-89
2021/11/04 10:23:44;;;;;;;31.10;20.65;;;;;;;;;;5030416;28;20100;-88
2021/11/04 10:26:11;;;;;;;25.23;19.33;;;;;;;;;;5031043;28;20025;-88
2021/11/04 10:28:38;;;;;;;24.75;17.65;;;;;;;;;;5012733;28;20024;-88
2021/11/04 10:31:05;;;;;;;26.23;18.42;;;;;;;;;;5012579;28;20021;-88
2021/11/04 10:33:31;;;;;;;18.55;16.30;;;;;;;;;;5029460;28;20457;-89
2021/11/04 10:36:07;;;;;;;20.42;16.02;;;;;;;;;;5012784;28;20040;-89
2021/11/04 10:38:37;;;;;;;23.73;17.75;;;;;;;;;;5013044;28;20029;-88
2021/11/04 10:41:03;;;;;;;21.33;16.60;;;;;;;;;;5031834;28;20029;-88
2021/11/04 10:43:29;;;;;;;24.25;17.35;;;;;;;;;;5029518;28;20163;-88
2021/11/04 10:45:57;;;;;;;21.42;17.50;;;;;;;;;;5013865;28;20112;-88
2021/11/04 10:48:22;;;;;;;20.25;15.65;;;;;;;;;;5031209;28;20064;-89
2021/11/04 10:50:48;;;;;;;19.33;15.57;;;;;;;;;;5029126;28;20048;-90
2021/11/04 10:53:20;;;;;;;20.83;15.73;;;;;;;;;;5031330;28;20025;-89
2021/11/04 10:55:46;;;;;;;18.88;16.23;;;;;;;;;;5014456;28;20029;-88
2021/11/04 10:58:28;;;;;;;18.50;15.23;;;;;;;;;;5014169;28;20010;-88
2021/11/04 11:00:53;;;;;;;16.45;14.70;;;;;;;;;;5015786;28;20075;-88
2021/11/04 11:03:21;;;;;;;18.70;13.85;;;;;;;;;;5016321;28;20444;-89
2021/11/04 11:05:47;;;;;;;16.23;12.85;;;;;;;;;;5015771;28;20021;-88
2021/11/04 11:08:13;;;;;;;14.77;11.75;;;;;;;;;;5015841;28;20021;-88
2021/11/04 11:10:39;;;;;;;13.45;11.75;;;;;;;;;;5033346;28;20493;-88
2021/11/04 11:13:05;;;;;;;14.30;11.27;;;;;;;;;;5015637;28;20030;-89
2021/11/04 11:15:33;;;;;;;11.65;9.55;;;;;;;;;;5033287;28;20014;-88
2021/11/04 11:18:00;;;;;;;10.35;9.38;;;;;;;;;;5016349;28;20390;-88
2021/11/04 11:20:26;;;;;;;12.90;8.50;;;;;;;;;;5018952;28;20130;-88
2021/11/04 11:22:51;;;;;;;10.85;9.15;;;;;;;;;;5036763;28;20021;-88
2021/11/04 11:25:16;;;;;;;9.98;8.98;;;;;;;;;;5036838;28;20136;-88
2021/11/04 11:27:42;;;;;;;9.82;8.93;;;;;;;;;;5019097;28;20021;-89
2021/11/04 11:30:14;;;;;;;9.80;8.80;;;;;;;;;;5019114;28;20017;-88
2021/11/04 11:32:39;;;;;;;8.77;7.93;;;;;;;;;;5018993;28;20128;-88
2021/11/04 11:35:17;;;;;;;11.77;8.07;;;;;;;;;;5018944;28;20068;-88
2021/11/04 11:38:03;;;;;;;12.88;8.43;;;;;;;;;;5035603;28;20021;-88
2021/11/04 11:40:29;;;;;;;9.90;8.43;;;;;;;;;;5036282;28;20040;-88
2021/11/04 11:42:55;;;;;;;11.43;9.90;;;;;;;;;;5034814;28;20079;-88
2021/11/04 11:45:20;;;;;;;11.30;9.15;;;;;;;;;;5033821;28;20461;-88
2021/11/04 11:47:46;;;;;;;12.73;10.18;;;;;;;;;;5015958;28;20504;-88
2021/11/04 11:50:16;;;;;;;17.08;10.68;;;;;;;;;;5015603;28;20041;-88
2021/11/04 11:53:02;;;;;;;13.05;10.18;;;;;;;;;;5018716;28;20434;-88
2021/11/04 11:55:35;;;;;;;11.63;10.35;;;;;;;;;;5015057;28;20037;-88
2021/11/04 11:58:19;;;;;;;12.32;10.48;;;;;;;;;;5015428;28;20049;-89
2021/11/04 12:00:54;;;;;;;13.65;10.40;;;;;;;;;;5033059;28;20060;-88
2021/11/04 12:03:41;;;;;;;11.55;9.98;;;;;;;;;;5031868;28;20119;-88
2021/11/04 13:07:56;;;;;;;20.95;18.70;;;;;;;;;;5108629;27;20463;-85
2021/11/04 13:10:25;;;;;;;24.50;18.52;;;;;;;;;;5106867;28;20483;-85
2021/11/04 13:12:52;;;;;;;24.00;18.65;;;;;;;;;;5107252;28;20118;-85
2021/11/04 13:15:20;;;;;;;21.08;16.90;;;;;;;;;;5108630;27;20048;-86
2021/11/04 13:17:46;;;;;;;22.23;16.67;;;;;;;;;;5107097;28;20020;-86
2021/11/04 13:20:13;;;;;;;23.40;17.65;;;;;;;;;;5108158;28;20026;-86
2021/11/04 13:22:39;;;;;;;23.38;17.17;;;;;;;;;;5108310;28;20024;-86
2021/11/04 13:25:06;;;;;;;26.98;19.88;;;;;;;;;;5106741;28;20024;-86
2021/11/04 13:27:31;;;;;;;26.58;18.15;;;;;;;;;;5108205;28;20372;-86
2021/11/04 13:29:57;;;;;;;20.63;16.88;;;;;;;;;;5108412;28;20024;-86
2021/11/04 13:32:24;;;;;;;24.58;19.25;;;;;;;;;;5108707;28;20482;-86
2021/11/04 13:34:49;;;;;;;24.95;19.25;;;;;;;;;;5106949;28;20019;-86
2021/11/04 13:37:18;;;;;;;22.38;18.60;;;;;;;;;;5108471;28;20026;-86
2021/11/04 13:39:44;;;;;;;26.85;21.40;;;;;;;;;;5106338;28;20028;-86
2021/11/04 13:42:25;;;;;;;25.00;19.90;;;;;;;;;;5106528;28;20008;-86
2021/11/04 13:45:03;;;;;;;24.42;20.27;;;;;;;;;;5107743;28;20424;-86
2021/11/04 13:47:35;;;;;;;23.58;18.45;;;;;;;;;;5107976;28;20070;-86
2021/11/04 13:50:01;;;;;;;22.05;18.27;;;;;;;;;;5106268;28;20020;-86
2021/11/04 13:52:26;;;;;;;25.52;18.75;;;;;;;;;;5107913;28;20349;-86
2021/11/04 13:54:51;;;;;;;23.35;17.55;;;;;;;;;;5107615;28;20024;-86
2021/11/04 13:57:16;;;;;;;25.23;18.23;;;;;;;;;;5107719;28;20134;-86
2021/11/04 13:59:43;;;;;;;28.75;17.52;;;;;;;;;;5106357;28;20273;-86
2021/11/04 14:02:12;;;;;;;24.60;16.17;;;;;;;;;;5107495;27;20047;-86
2021/11/04 14:04:47;;;;;;;21.67;14.90;;;;;;;;;;5107761;28;20547;-86
2021/11/04 14:07:21;;;;;;;18.40;15.32;;;;;;;;;;5106036;28;20059;-86
2021/11/04 14:09:54;;;;;;;18.13;14.55;;;;;;;;;;5105897;28;20070;-86
2021/11/04 14:12:24;;;;;;;17.40;14.40;;;;;;;;;;5107301;28;20051;-86
2021/11/04 14:14:49;;;;;;;18.67;13.93;;;;;;;;;;5107735;28;20020;-86
2021/11/04 14:17:16;;;;;;;18.73;13.18;;;;;;;;;;5104490;28;20058;-86
2021/11/04 14:19:41;;;;;;;18.23;12.75;;;;;;;;;;5093859;28;20026;-86
2021/11/04 14:22:08;;;;;;;12.77;11.38;;;;;;;;;;5093973;28;20024;-86
2021/11/04 14:24:34;;;;;;;13.95;10.65;;;;;;;;;;5094072;28;20016;-86
2021/11/04 14:27:00;;;;;;;17.38;11.50;;;;;;;;;;5092434;28;20081;-86
2021/11/04 14:29:25;;;;;;;21.85;10.27;;;;;;;;;;5094135;28;20027;-86
2021/11/04 14:31:52;;;;;;;16.30;10.43;;;;;;;;;;5093700;28;20016;-86
2021/11/04 14:34:19;;;;;;;14.45;10.75;;;;;;;;;;5094243;28;20016;-86
2021/11/04 14:36:45;;;;;;;13.15;10.00;;;;;;;;;;5094036;28;20020;-86
2021/11/04 14:39:10;;;;;;;13.13;10.00;;;;;;;;;;5092364;28;20028;-86
2021/11/04 14:41:35;;;;;;;13.13;8.90;;;;;;;;;;5093203;28;20266;-86
2021/11/04 14:44:01;;;;;;;13.53;9.67;;;;;;;;;;5093406;28;20059;-86
2021/11/04 14:46:30;;;;;;;12.20;10.05;;;;;;;;;;5091513;28;20820;-86
2021/11/04 14:48:55;;;;;;;11.68;9.40;;;;;;;;;;5091764;28;20055;-86
2021/11/04 14:51:21;;;;;;;11.27;8.85;;;;;;;;;;5091559;28;20096;-86
2021/11/04 14:53:46;;;;;;;13.05;9.68;;;;;;;;;;5093061;28;20023;-86
2021/11/04 14:56:12;;;;;;;14.48;10.40;;;;;;;;;;5091654;28;20020;-86
2021/11/04 14:58:37;;;;;;;10.60;8.95;;;;;;;;;;5091669;28;20047;-86
2021/11/04 15:01:03;;;;;;;12.45;9.40;;;;;;;;;;5091508;28;20022;-86
2021/11/04 15:03:28;;;;;;;13.30;9.25;;;;;;;;;;5091524;28;20111;-86
2021/11/04 15:05:55;;;;;;;11.93;10.02;;;;;;;;;;5092652;28;20495;-86
2021/11/04 15:08:20;;;;;;;12.00;9.60;;;;;;;;;;5091488;28;20052;-86
2021/11/04 15:10:45;;;;;;;13.88;10.45;;;;;;;;;;5091386;28;20450;-86
2021/11/04 15:13:11;;;;;;;14.43;10.07;;;;;;;;;;5092561;28;20024;-86
2021/11/04 15:15:37;;;;;;;13.23;10.45;;;;;;;;;;5092731;28;20095;-86
2021/11/04 15:18:02;;;;;;;18.80;11.20;;;;;;;;;;5091175;28;20020;-86